sensor_id;sensor_type;location;lat;lon;timestamp;pressure;altitude;pressure_sealevel;temperature;humidity
68169;BME280;54981;50.206;15.978;2023-05-18T00:00:56;99535.88;;;8.25;100.00
68169;BME280;54981;50.206;15.978;2023-05-18T00:03:28;99536.44;;;8.35;100.00
68169;BME280;54981;50.206;15.978;2023-05-18T00:06:02;99530.44;;;8.30;100.00
68169;BME280;54981;50.206;15.978;2023-05-18T00:08:33;99536.91;;;8.21;100.00
68169;BME280;54981;50.206;15.978;2023-05-18T00:11:05;99534.38;;;8.18;100.00
68169;BME280;54981;50.206;15.978;2023-05-18T00:13:35;99540.38;;;8.23;100.00
68169;BME280;54981;50.206;15.978;2023-05-18T00:16:05;99537.84;;;8.20;100.00
68169;BME280;54981;50.206;15.978;2023-05-18T00:18:36;99551.19;;;8.17;100.00
68169;BME280;54981;50.206;15.978;2023-05-18T00:21:07;99549.31;;;8.21;100.00
68169;BME280;54981;50.206;15.978;2023-05-18T00:23:38;99546.50;;;8.25;100.00
68169;BME280;54981;50.206;15.978;2023-05-18T00:26:08;99547.91;;;8.10;100.00
68169;BME280;54981;50.206;15.978;2023-05-18T00:28:38;99542.66;;;8.09;100.00
68169;BME280;54981;50.206;15.978;2023-05-18T00:31:09;99539.16;;;8.08;100.00
68169;BME280;54981;50.206;15.978;2023-05-18T00:33:39;99539.06;;;8.10;100.00
68169;BME280;54981;50.206;15.978;2023-05-18T00:36:10;99538.34;;;8.06;100.00
68169;BME280;54981;50.206;15.978;2023-05-18T00:38:40;99541.97;;;8.04;100.00
68169;BME280;54981;50.206;15.978;2023-05-18T00:41:11;99548.81;;;8.09;100.00
68169;BME280;54981;50.206;15.978;2023-05-18T00:43:41;99546.81;;;8.16;100.00
68169;BME280;54981;50.206;15.978;2023-05-18T00:46:11;99551.34;;;8.13;100.00
68169;BME280;54981;50.206;15.978;2023-05-18T00:48:42;99548.78;;;8.11;100.00
68169;BME280;54981;50.206;15.978;2023-05-18T00:51:13;99555.91;;;8.09;100.00
68169;BME280;54981;50.206;15.978;2023-05-18T00:53:43;99549.78;;;8.07;100.00
68169;BME280;54981;50.206;15.978;2023-05-18T00:56:14;99554.16;;;8.08;100.00
68169;BME280;54981;50.206;15.978;2023-05-18T00:58:45;99552.34;;;8.10;100.00
68169;BME280;54981;50.206;15.978;2023-05-18T01:01:17;99550.88;;;8.01;100.00
68169;BME280;54981;50.206;15.978;2023-05-18T01:03:48;99553.38;;;8.06;100.00
68169;BME280;54981;50.206;15.978;2023-05-18T01:06:18;99553.97;;;8.14;100.00
68169;BME280;54981;50.206;15.978;2023-05-18T01:08:49;99553.25;;;8.09;100.00
68169;BME280;54981;50.206;15.978;2023-05-18T01:14:45;99565.16;;;7.97;100.00
68169;BME280;54981;50.206;15.978;2023-05-18T01:17:28;99560.84;;;7.95;100.00
68169;BME280;54981;50.206;15.978;2023-05-18T01:26:15;99567.03;;;7.94;100.00
68169;BME280;54981;50.206;15.978;2023-05-18T01:28:47;99563.25;;;8.01;100.00
68169;BME280;54981;50.206;15.978;2023-05-18T01:31:18;99566.56;;;8.07;100.00
68169;BME280;54981;50.206;15.978;2023-05-18T01:33:49;99566.28;;;8.15;100.00
68169;BME280;54981;50.206;15.978;2023-05-18T01:36:19;99564.91;;;8.05;100.00
68169;BME280;54981;50.206;15.978;2023-05-18T01:38:50;99574.75;;;8.01;100.00
68169;BME280;54981;50.206;15.978;2023-05-18T01:41:23;99576.50;;;8.01;100.00
68169;BME280;54981;50.206;15.978;2023-05-18T01:44:25;99566.72;;;8.03;100.00
68169;BME280;54981;50.206;15.978;2023-05-18T01:49:35;99578.13;;;8.06;100.00
68169;BME280;54981;50.206;15.978;2023-05-18T01:52:10;99579.16;;;8.01;100.00
68169;BME280;54981;50.206;15.978;2023-05-18T01:54:43;99578.47;;;7.96;100.00
68169;BME280;54981;50.206;15.978;2023-05-18T01:57:15;99570.72;;;7.89;100.00
68169;BME280;54981;50.206;15.978;2023-05-18T01:59:48;99575.81;;;7.96;100.00
68169;BME280;54981;50.206;15.978;2023-05-18T02:02:19;99573.78;;;8.04;100.00
68169;BME280;54981;50.206;15.978;2023-05-18T02:04:49;99568.38;;;8.07;100.00
68169;BME280;54981;50.206;15.978;2023-05-18T02:07:19;99566.25;;;8.17;100.00
68169;BME280;54981;50.206;15.978;2023-05-18T02:09:50;99561.00;;;8.15;100.00
68169;BME280;54981;50.206;15.978;2023-05-18T02:12:20;99569.84;;;8.16;100.00
68169;BME280;54981;50.206;15.978;2023-05-18T02:14:51;99566.25;;;8.17;100.00
68169;BME280;54981;50.206;15.978;2023-05-18T02:17:21;99558.84;;;8.26;100.00
68169;BME280;54981;50.206;15.978;2023-05-18T02:19:55;99566.09;;;8.21;100.00
68169;BME280;54981;50.206;15.978;2023-05-18T02:22:25;99558.94;;;8.23;100.00
68169;BME280;54981;50.206;15.978;2023-05-18T02:24:55;99566.78;;;8.26;100.00
68169;BME280;54981;50.206;15.978;2023-05-18T02:27:26;99568.03;;;8.16;100.00
68169;BME280;54981;50.206;15.978;2023-05-18T02:29:57;99569.56;;;8.23;100.00
68169;BME280;54981;50.206;15.978;2023-05-18T02:32:28;99566.09;;;8.21;100.00
68169;BME280;54981;50.206;15.978;2023-05-18T02:34:58;99573.28;;;8.18;100.00
68169;BME280;54981;50.206;15.978;2023-05-18T02:37:32;99570.75;;;8.15;100.00
68169;BME280;54981;50.206;15.978;2023-05-18T02:40:13;99570.63;;;8.18;100.00
68169;BME280;54981;50.206;15.978;2023-05-18T02:42:44;99574.16;;;8.18;100.00
68169;BME280;54981;50.206;15.978;2023-05-18T02:45:15;99570.38;;;8.25;100.00
68169;BME280;54981;50.206;15.978;2023-05-18T02:47:46;99570.75;;;8.15;100.00
68169;BME280;54981;50.206;15.978;2023-05-18T02:50:16;99576.72;;;8.21;100.00
68169;BME280;54981;50.206;15.978;2023-05-18T02:52:47;99575.69;;;8.25;100.00
68169;BME280;54981;50.206;15.978;2023-05-18T02:55:19;99575.53;;;8.30;100.00
68169;BME280;54981;50.206;15.978;2023-05-18T02:57:49;99580.28;;;8.20;100.00
68169;BME280;54981;50.206;15.978;2023-05-18T03:00:25;99585.78;;;8.14;100.00
68169;BME280;54981;50.206;15.978;2023-05-18T03:02:58;99582.75;;;8.25;100.00
68169;BME280;54981;50.206;15.978;2023-05-18T03:05:29;99583.72;;;8.22;100.00
68169;BME280;54981;50.206;15.978;2023-05-18T03:08:00;99582.31;;;8.12;100.00
68169;BME280;54981;50.206;15.978;2023-05-18T03:10:31;99581.91;;;8.24;100.00
68169;BME280;54981;50.206;15.978;2023-05-18T03:13:02;99583.88;;;8.18;100.00
68169;BME280;54981;50.206;15.978;2023-05-18T03:15:33;99583.03;;;8.17;100.00
68169;BME280;54981;50.206;15.978;2023-05-18T03:18:03;99582.22;;;8.15;100.00
68169;BME280;54981;50.206;15.978;2023-05-18T03:20:34;99594.69;;;8.13;100.00
68169;BME280;54981;50.206;15.978;2023-05-18T03:23:06;99596.41;;;8.14;100.00
68169;BME280;54981;50.206;15.978;2023-05-18T03:25:37;99599.03;;;8.16;100.00
68169;BME280;54981;50.206;15.978;2023-05-18T03:28:07;99595.56;;;8.14;100.00
68169;BME280;54981;50.206;15.978;2023-05-18T03:30:38;99601.91;;;8.08;100.00
68169;BME280;54981;50.206;15.978;2023-05-18T03:33:08;99613.34;;;8.10;100.00
68169;BME280;54981;50.206;15.978;2023-05-18T03:35:39;99608.00;;;8.11;100.00
68169;BME280;54981;50.206;15.978;2023-05-18T03:38:09;99607.06;;;8.13;100.00
68169;BME280;54981;50.206;15.978;2023-05-18T03:40:40;99608.69;;;8.17;100.00
68169;BME280;54981;50.206;15.978;2023-05-18T03:43:10;99617.31;;;8.23;100.00
68169;BME280;54981;50.206;15.978;2023-05-18T03:45:41;99614.13;;;8.14;100.00
68169;BME280;54981;50.206;15.978;2023-05-18T03:48:11;99618.34;;;8.19;100.00
68169;BME280;54981;50.206;15.978;2023-05-18T03:50:42;99616.63;;;8.18;100.00
68169;BME280;54981;50.206;15.978;2023-05-18T03:53:12;99616.53;;;8.20;100.00
68169;BME280;54981;50.206;15.978;2023-05-18T03:55:43;99620.00;;;8.22;100.00
68169;BME280;54981;50.206;15.978;2023-05-18T03:58:14;99621.84;;;8.20;100.00
68169;BME280;54981;50.206;15.978;2023-05-18T04:00:46;99624.47;;;8.21;100.00
68169;BME280;54981;50.206;15.978;2023-05-18T04:03:16;99627.66;;;8.31;100.00
68169;BME280;54981;50.206;15.978;2023-05-18T04:05:46;99631.28;;;8.28;100.00
68169;BME280;54981;50.206;15.978;2023-05-18T04:08:19;99633.16;;;8.25;100.00
68169;BME280;54981;50.206;15.978;2023-05-18T04:10:50;99635.72;;;8.28;100.00
68169;BME280;54981;50.206;15.978;2023-05-18T04:13:21;99640.91;;;8.31;100.00
68169;BME280;54981;50.206;15.978;2023-05-18T04:15:51;99644.56;;;8.28;100.00
68169;BME280;54981;50.206;15.978;2023-05-18T04:18:21;99640.97;;;8.29;100.00
68169;BME280;54981;50.206;15.978;2023-05-18T04:20:52;99645.47;;;8.27;100.00
68169;BME280;54981;50.206;15.978;2023-05-18T04:23:24;99643.72;;;8.26;100.00
68169;BME280;54981;50.206;15.978;2023-05-18T04:25:54;99642.09;;;8.22;100.00
68169;BME280;54981;50.206;15.978;2023-05-18T04:28:25;99641.91;;;8.28;100.00
68169;BME280;54981;50.206;15.978;2023-05-18T04:30:57;99641.91;;;8.28;100.00
68169;BME280;54981;50.206;15.978;2023-05-18T04:33:28;99636.47;;;8.31;100.00
68169;BME280;54981;50.206;15.978;2023-05-18T04:35:59;99639.34;;;8.25;100.00
68169;BME280;54981;50.206;15.978;2023-05-18T04:38:33;99638.31;;;8.29;100.00
68169;BME280;54981;50.206;15.978;2023-05-18T04:41:04;99645.25;;;8.33;100.00
68169;BME280;54981;50.206;15.978;2023-05-18T04:43:35;99638.66;;;8.47;100.00
68169;BME280;54981;50.206;15.978;2023-05-18T04:46:06;99650.56;;;8.33;100.00
68169;BME280;54981;50.206;15.978;2023-05-18T04:48:36;99646.69;;;8.44;100.00
68169;BME280;54981;50.206;15.978;2023-05-18T04:51:07;99644.53;;;8.55;100.00
68169;BME280;54981;50.206;15.978;2023-05-18T04:53:37;99634.25;;;8.46;100.00
68169;BME280;54981;50.206;15.978;2023-05-18T04:56:08;99640.22;;;8.52;100.00
68169;BME280;54981;50.206;15.978;2023-05-18T04:58:38;99648.00;;;8.57;100.00
68169;BME280;54981;50.206;15.978;2023-05-18T05:01:08;99642.59;;;8.60;100.00
68169;BME280;54981;50.206;15.978;2023-05-18T05:03:39;99639.59;;;8.69;100.00
68169;BME280;54981;50.206;15.978;2023-05-18T05:06:10;99639.59;;;8.69;100.00
68169;BME280;54981;50.206;15.978;2023-05-18T05:08:40;99640.25;;;8.76;100.00
68169;BME280;54981;50.206;15.978;2023-05-18T05:11:12;99640.31;;;8.74;100.00
68169;BME280;54981;50.206;15.978;2023-05-18T05:13:42;99645.66;;;8.73;100.00
68169;BME280;54981;50.206;15.978;2023-05-18T05:16:13;99645.31;;;8.82;100.00
68169;BME280;54981;50.206;15.978;2023-05-18T05:18:43;99644.31;;;8.86;100.00
68169;BME280;54981;50.206;15.978;2023-05-18T05:21:13;99646.34;;;9.03;100.00
68169;BME280;54981;50.206;15.978;2023-05-18T05:23:45;99656.84;;;9.06;100.00
68169;BME280;54981;50.206;15.978;2023-05-18T05:26:16;99647.53;;;8.94;100.00
68169;BME280;54981;50.206;15.978;2023-05-18T05:28:46;99651.06;;;9.18;100.00
68169;BME280;54981;50.206;15.978;2023-05-18T05:31:17;99652.03;;;9.16;100.00
68169;BME280;54981;50.206;15.978;2023-05-18T05:33:47;99661.50;;;9.23;100.00
68169;BME280;54981;50.206;15.978;2023-05-18T05:36:17;99651.41;;;9.33;100.00
68169;BME280;54981;50.206;15.978;2023-05-18T05:38:48;99644.81;;;9.43;100.00
68169;BME280;54981;50.206;15.978;2023-05-18T05:41:18;99654.88;;;9.35;100.00
68169;BME280;54981;50.206;15.978;2023-05-18T05:43:49;99656.88;;;9.52;100.00
68169;BME280;54981;50.206;15.978;2023-05-18T05:46:19;99656.19;;;9.47;100.00
68169;BME280;54981;50.206;15.978;2023-05-18T05:48:49;99657.19;;;9.44;100.00
68169;BME280;54981;50.206;15.978;2023-05-18T05:51:20;99657.97;;;9.46;100.00
68169;BME280;54981;50.206;15.978;2023-05-18T05:53:50;99657.44;;;9.60;100.00
68169;BME280;54981;50.206;15.978;2023-05-18T05:56:20;99656.34;;;9.66;100.00
68169;BME280;54981;50.206;15.978;2023-05-18T05:58:51;99666.59;;;9.75;100.00
68169;BME280;54981;50.206;15.978;2023-05-18T06:01:22;99668.31;;;9.76;100.00
68169;BME280;54981;50.206;15.978;2023-05-18T06:03:52;99663.13;;;9.73;100.00
68169;BME280;54981;50.206;15.978;2023-05-18T06:06:23;99659.06;;;9.86;100.00
68169;BME280;54981;50.206;15.978;2023-05-18T06:08:53;99645.19;;;9.78;100.00
68169;BME280;54981;50.206;15.978;2023-05-18T06:11:23;99656.41;;;9.86;100.00
68169;BME280;54981;50.206;15.978;2023-05-18T06:13:54;99655.09;;;9.96;100.00
68169;BME280;54981;50.206;15.978;2023-05-18T06:16:24;99665.44;;;9.82;100.00
68169;BME280;54981;50.206;15.978;2023-05-18T06:18:55;99663.44;;;9.87;100.00
68169;BME280;54981;50.206;15.978;2023-05-18T06:21:25;99656.94;;;9.94;100.00
68169;BME280;54981;50.206;15.978;2023-05-18T06:23:55;99658.47;;;10.22;100.00
68169;BME280;54981;50.206;15.978;2023-05-18T06:26:26;99662.88;;;10.23;100.00
68169;BME280;54981;50.206;15.978;2023-05-18T06:28:56;99656.38;;;10.30;100.00
68169;BME280;54981;50.206;15.978;2023-05-18T06:31:27;99663.91;;;10.19;100.00
68169;BME280;54981;50.206;15.978;2023-05-18T06:33:57;99660.34;;;10.20;100.00
68169;BME280;54981;50.206;15.978;2023-05-18T06:36:27;99684.78;;;10.08;100.00
68169;BME280;54981;50.206;15.978;2023-05-18T06:38:58;99682.81;;;10.13;100.00
68169;BME280;54981;50.206;15.978;2023-05-18T06:41:28;99677.34;;;10.16;100.00
68169;BME280;54981;50.206;15.978;2023-05-18T06:43:59;99678.59;;;10.29;100.00
68169;BME280;54981;50.206;15.978;2023-05-18T06:46:30;99678.00;;;10.43;100.00
68169;BME280;54981;50.206;15.978;2023-05-18T06:49:03;99689.41;;;10.47;100.00
68169;BME280;54981;50.206;15.978;2023-05-18T06:51:33;99682.38;;;10.66;100.00
68169;BME280;54981;50.206;15.978;2023-05-18T06:54:04;99683.47;;;10.60;100.00
68169;BME280;54981;50.206;15.978;2023-05-18T06:56:34;99678.50;;;10.73;100.00
68169;BME280;54981;50.206;15.978;2023-05-18T06:59:05;99680.50;;;10.68;100.00
68169;BME280;54981;50.206;15.978;2023-05-18T07:01:35;99678.00;;;10.84;100.00
68169;BME280;54981;50.206;15.978;2023-05-18T07:04:05;99680.28;;;10.93;100.00
68169;BME280;54981;50.206;15.978;2023-05-18T07:06:36;99677.88;;;11.07;100.00
68169;BME280;54981;50.206;15.978;2023-05-18T07:09:07;99674.56;;;11.21;100.00
68169;BME280;54981;50.206;15.978;2023-05-18T07:11:37;99671.84;;;11.42;100.00
68169;BME280;54981;50.206;15.978;2023-05-18T07:14:09;99673.34;;;11.66;100.00
68169;BME280;54981;50.206;15.978;2023-05-18T07:16:39;99680.78;;;11.60;100.00
68169;BME280;54981;50.206;15.978;2023-05-18T07:19:10;99667.50;;;11.58;100.00
68169;BME280;54981;50.206;15.978;2023-05-18T07:21:40;99676.72;;;12.08;100.00
68169;BME280;54981;50.206;15.978;2023-05-18T07:24:11;99676.31;;;11.98;100.00
68169;BME280;54981;50.206;15.978;2023-05-18T07:26:41;99681.66;;;11.60;100.00
68169;BME280;54981;50.206;15.978;2023-05-18T07:29:12;99678.03;;;11.42;100.00
68169;BME280;54981;50.206;15.978;2023-05-18T07:31:42;99669.38;;;11.37;100.00
68169;BME280;54981;50.206;15.978;2023-05-18T07:34:12;99672.06;;;11.56;100.00
68169;BME280;54981;50.206;15.978;2023-05-18T07:36:43;99678.34;;;11.55;100.00
68169;BME280;54981;50.206;15.978;2023-05-18T07:39:13;99677.00;;;12.02;100.00
68169;BME280;54981;50.206;15.978;2023-05-18T07:41:48;99677.59;;;12.26;100.00
68169;BME280;54981;50.206;15.978;2023-05-18T07:44:19;99672.19;;;12.27;100.00
68169;BME280;54981;50.206;15.978;2023-05-18T07:46:49;99669.81;;;12.21;100.00
68169;BME280;54981;50.206;15.978;2023-05-18T07:49:20;99668.97;;;12.38;100.00
68169;BME280;54981;50.206;15.978;2023-05-18T07:51:52;99669.09;;;12.00;100.00
68169;BME280;54981;50.206;15.978;2023-05-18T07:54:22;99672.41;;;11.86;100.00
68169;BME280;54981;50.206;15.978;2023-05-18T07:56:52;99666.66;;;11.96;100.00
68169;BME280;54981;50.206;15.978;2023-05-18T07:59:23;99666.72;;;11.94;100.00
68169;BME280;54981;50.206;15.978;2023-05-18T08:01:53;99669.50;;;12.10;100.00
68169;BME280;54981;50.206;15.978;2023-05-18T08:04:24;99669.59;;;11.89;100.00
68169;BME280;54981;50.206;15.978;2023-05-18T08:06:54;99677.16;;;11.80;100.00
68169;BME280;54981;50.206;15.978;2023-05-18T08:09:29;99675.91;;;11.88;100.00
68169;BME280;54981;50.206;15.978;2023-05-18T08:11:59;99667.06;;;12.05;100.00
68169;BME280;54981;50.206;15.978;2023-05-18T08:14:30;99672.34;;;12.24;100.00
68169;BME280;54981;50.206;15.978;2023-05-18T08:17:02;99666.16;;;12.41;100.00
68169;BME280;54981;50.206;15.978;2023-05-18T08:19:32;99673.16;;;12.44;100.00
68169;BME280;54981;50.206;15.978;2023-05-18T08:22:03;99675.25;;;12.54;100.00
68169;BME280;54981;50.206;15.978;2023-05-18T08:24:33;99673.63;;;12.34;100.00
68169;BME280;54981;50.206;15.978;2023-05-18T08:27:04;99672.72;;;12.17;100.00
68169;BME280;54981;50.206;15.978;2023-05-18T08:29:37;99663.63;;;12.38;100.00
68169;BME280;54981;50.206;15.978;2023-05-18T08:32:07;99669.13;;;12.35;97.48
68169;BME280;54981;50.206;15.978;2023-05-18T08:34:38;99668.66;;;12.44;99.50
68169;BME280;54981;50.206;15.978;2023-05-18T08:37:08;99665.44;;;12.20;93.25
68169;BME280;54981;50.206;15.978;2023-05-18T08:39:38;99668.97;;;12.73;100.00
68169;BME280;54981;50.206;15.978;2023-05-18T08:42:18;99665.59;;;12.69;100.00
68169;BME280;54981;50.206;15.978;2023-05-18T08:45:11;99667.22;;;12.72;100.00
68169;BME280;54981;50.206;15.978;2023-05-18T08:47:43;99673.69;;;12.85;96.75
68169;BME280;54981;50.206;15.978;2023-05-18T08:50:14;99671.94;;;12.67;100.00
68169;BME280;54981;50.206;15.978;2023-05-18T08:52:47;99677.63;;;13.29;100.00
68169;BME280;54981;50.206;15.978;2023-05-18T08:55:21;99697.38;;;12.91;97.72
68169;BME280;54981;50.206;15.978;2023-05-18T08:57:56;99676.41;;;12.84;100.00
68169;BME280;54981;50.206;15.978;2023-05-18T09:00:27;99689.59;;;12.87;100.00
68169;BME280;54981;50.206;15.978;2023-05-18T09:02:58;99687.97;;;12.84;100.00
68169;BME280;54981;50.206;15.978;2023-05-18T09:05:29;99682.50;;;13.03;100.00
68169;BME280;54981;50.206;15.978;2023-05-18T09:08:01;99679.34;;;13.12;100.00
68169;BME280;54981;50.206;15.978;2023-05-18T09:10:32;99686.53;;;13.12;100.00
68169;BME280;54981;50.206;15.978;2023-05-18T09:13:03;99669.53;;;12.79;100.00
68169;BME280;54981;50.206;15.978;2023-05-18T09:15:35;99678.22;;;12.83;100.00
68169;BME280;54981;50.206;15.978;2023-05-18T09:18:05;99675.19;;;12.73;100.00
68169;BME280;54981;50.206;15.978;2023-05-18T09:20:35;99675.31;;;12.88;100.00
68169;BME280;54981;50.206;15.978;2023-05-18T09:23:06;99671.69;;;13.06;100.00
68169;BME280;54981;50.206;15.978;2023-05-18T09:25:42;99672.81;;;13.18;100.00
68169;BME280;54981;50.206;15.978;2023-05-18T09:28:24;99691.91;;;12.94;100.00
68169;BME280;54981;50.206;15.978;2023-05-18T09:30:55;99689.78;;;12.84;100.00
68169;BME280;54981;50.206;15.978;2023-05-18T09:33:31;99686.75;;;12.56;100.00
68169;BME280;54981;50.206;15.978;2023-05-18T09:36:04;99686.56;;;12.60;100.00
68169;BME280;54981;50.206;15.978;2023-05-18T09:38:36;99692.22;;;12.71;100.00
68169;BME280;54981;50.206;15.978;2023-05-18T09:41:12;99676.59;;;12.46;100.00
68169;BME280;54981;50.206;15.978;2023-05-18T09:43:46;99689.63;;;12.34;100.00
68169;BME280;54981;50.206;15.978;2023-05-18T09:46:17;99688.91;;;12.83;100.00
68169;BME280;54981;50.206;15.978;2023-05-18T09:48:51;99690.84;;;13.14;100.00
68169;BME280;54981;50.206;15.978;2023-05-18T09:51:23;99687.34;;;13.30;100.00
68169;BME280;54981;50.206;15.978;2023-05-18T09:53:56;99695.59;;;13.58;100.00
68169;BME280;54981;50.206;15.978;2023-05-18T09:56:26;99681.44;;;13.40;100.00
68169;BME280;54981;50.206;15.978;2023-05-18T09:58:57;99684.28;;;13.20;100.00
68169;BME280;54981;50.206;15.978;2023-05-18T10:01:28;99679.91;;;13.19;100.00
68169;BME280;54981;50.206;15.978;2023-05-18T10:04:04;99690.41;;;13.39;100.00
68169;BME280;54981;50.206;15.978;2023-05-18T10:06:35;99675.63;;;12.99;94.69
68169;BME280;54981;50.206;15.978;2023-05-18T10:09:13;99683.91;;;13.10;100.00
68169;BME280;54981;50.206;15.978;2023-05-18T10:11:45;99699.28;;;13.07;100.00
68169;BME280;54981;50.206;15.978;2023-05-18T10:14:16;99697.69;;;13.03;93.88
68169;BME280;54981;50.206;15.978;2023-05-18T10:16:46;99702.44;;;12.97;90.25
68169;BME280;54981;50.206;15.978;2023-05-18T10:19:18;99695.03;;;13.03;94.91
68169;BME280;54981;50.206;15.978;2023-05-18T10:21:50;99688.19;;;12.97;100.00
68169;BME280;54981;50.206;15.978;2023-05-18T10:24:22;99684.81;;;13.11;100.00
68169;BME280;54981;50.206;15.978;2023-05-18T10:26:57;99691.97;;;12.93;100.00
68169;BME280;54981;50.206;15.978;2023-05-18T10:29:31;99689.38;;;12.91;97.52
68169;BME280;54981;50.206;15.978;2023-05-18T10:32:05;99693.88;;;12.73;100.00
68169;BME280;54981;50.206;15.978;2023-05-18T10:34:37;99688.88;;;13.00;100.00
68169;BME280;54981;50.206;15.978;2023-05-18T10:37:08;99685.94;;;12.89;96.37
68169;BME280;54981;50.206;15.978;2023-05-18T10:39:41;99690.63;;;13.02;97.46
68169;BME280;54981;50.206;15.978;2023-05-18T10:42:14;99691.72;;;12.97;86.64
68169;BME280;54981;50.206;15.978;2023-05-18T10:44:46;99699.00;;;12.61;95.53
68169;BME280;54981;50.206;15.978;2023-05-18T10:47:19;99686.38;;;12.97;100.00
68169;BME280;54981;50.206;15.978;2023-05-18T10:49:50;99683.38;;;13.54;100.00
68169;BME280;54981;50.206;15.978;2023-05-18T10:52:22;99681.00;;;13.15;100.00
68169;BME280;54981;50.206;15.978;2023-05-18T10:54:53;99693.34;;;13.35;100.00
68169;BME280;54981;50.206;15.978;2023-05-18T10:57:26;99685.84;;;13.24;97.06
68169;BME280;54981;50.206;15.978;2023-05-18T10:59:58;99678.66;;;13.09;91.86
68169;BME280;54981;50.206;15.978;2023-05-18T11:02:29;99695.03;;;13.03;97.79
68169;BME280;54981;50.206;15.978;2023-05-18T11:05:04;99688.53;;;13.24;100.00
68169;BME280;54981;50.206;15.978;2023-05-18T11:07:35;99688.81;;;13.02;100.00
68169;BME280;54981;50.206;15.978;2023-05-18T11:10:09;99683.75;;;13.47;100.00
68169;BME280;54981;50.206;15.978;2023-05-18T11:12:40;99690.97;;;13.62;100.00
68169;BME280;54981;50.206;15.978;2023-05-18T11:15:10;99688.97;;;13.50;100.00
68169;BME280;54981;50.206;15.978;2023-05-18T11:17:41;99681.28;;;13.59;100.00
68169;BME280;54981;50.206;15.978;2023-05-18T11:20:12;99677.75;;;13.91;100.00
68169;BME280;54981;50.206;15.978;2023-05-18T11:22:50;99684.66;;;13.47;100.00
68169;BME280;54981;50.206;15.978;2023-05-18T11:27:56;99673.28;;;13.26;96.87
68169;BME280;54981;50.206;15.978;2023-05-18T11:33:20;99677.13;;;13.70;100.00
68169;BME280;54981;50.206;15.978;2023-05-18T11:39:02;99686.66;;;12.75;94.15
68169;BME280;54981;50.206;15.978;2023-05-18T11:41:37;99678.19;;;13.00;100.00
68169;BME280;54981;50.206;15.978;2023-05-18T11:49:26;99690.25;;;12.22;99.17
68169;BME280;54981;50.206;15.978;2023-05-18T11:52:05;99688.63;;;12.37;100.00
68169;BME280;54981;50.206;15.978;2023-05-18T11:54:42;99680.03;;;12.30;100.00
68169;BME280;54981;50.206;15.978;2023-05-18T11:57:14;99686.78;;;12.20;100.00
68169;BME280;54981;50.206;15.978;2023-05-18T11:59:47;99680.38;;;12.59;100.00
68169;BME280;54981;50.206;15.978;2023-05-18T12:02:23;99682.03;;;12.44;100.00
68169;BME280;54981;50.206;15.978;2023-05-18T12:04:56;99677.53;;;12.45;100.00
68169;BME280;54981;50.206;15.978;2023-05-18T12:07:29;99679.50;;;12.58;100.00
68169;BME280;54981;50.206;15.978;2023-05-18T12:12:38;99668.63;;;12.79;100.00
68169;BME280;54981;50.206;15.978;2023-05-18T12:15:10;99678.69;;;13.25;100.00
68169;BME280;54981;50.206;15.978;2023-05-18T12:17:45;99671.03;;;13.52;89.58
68169;BME280;54981;50.206;15.978;2023-05-18T12:20:20;99681.94;;;13.31;85.00
68169;BME280;54981;50.206;15.978;2023-05-18T12:22:52;99675.91;;;13.43;99.80
68169;BME280;54981;50.206;15.978;2023-05-18T12:25:25;99681.09;;;13.47;87.70
68169;BME280;54981;50.206;15.978;2023-05-18T12:27:56;99681.25;;;13.43;79.75
68169;BME280;54981;50.206;15.978;2023-05-18T12:30:27;99683.00;;;13.45;91.44
68169;BME280;54981;50.206;15.978;2023-05-18T12:33:03;99674.00;;;13.12;89.61
68169;BME280;54981;50.206;15.978;2023-05-18T12:35:34;99671.06;;;13.34;81.86
68169;BME280;54981;50.206;15.978;2023-05-18T12:38:04;99659.63;;;13.64;89.19
68169;BME280;54981;50.206;15.978;2023-05-18T12:40:36;99674.91;;;13.62;84.38
68169;BME280;54981;50.206;15.978;2023-05-18T12:43:13;99661.44;;;13.79;84.43
68169;BME280;54981;50.206;15.978;2023-05-18T12:45:43;99666.94;;;14.08;88.42
68169;BME280;54981;50.206;15.978;2023-05-18T12:48:14;99663.66;;;14.03;83.92
68169;BME280;54981;50.206;15.978;2023-05-18T12:50:48;99661.75;;;14.05;83.68
68169;BME280;54981;50.206;15.978;2023-05-18T12:53:19;99666.41;;;14.01;80.92
68169;BME280;54981;50.206;15.978;2023-05-18T12:55:56;99657.13;;;13.93;96.66
68169;BME280;54981;50.206;15.978;2023-05-18T12:58:28;99664.81;;;13.83;93.57
68169;BME280;54981;50.206;15.978;2023-05-18T13:01:09;99671.19;;;13.96;90.23
68169;BME280;54981;50.206;15.978;2023-05-18T13:03:40;99648.81;;;13.81;91.43
68169;BME280;54981;50.206;15.978;2023-05-18T13:06:11;99656.25;;;13.76;76.68
68169;BME280;54981;50.206;15.978;2023-05-18T13:08:41;99656.06;;;13.63;90.31
68169;BME280;54981;50.206;15.978;2023-05-18T13:11:12;99662.81;;;13.55;84.40
68169;BME280;54981;50.206;15.978;2023-05-18T13:14:19;99660.91;;;13.57;82.59
68169;BME280;54981;50.206;15.978;2023-05-18T13:16:50;99664.81;;;13.83;91.11
68169;BME280;54981;50.206;15.978;2023-05-18T13:19:24;99653.91;;;13.86;89.30
68169;BME280;54981;50.206;15.978;2023-05-18T13:21:56;99661.31;;;13.97;86.27
68169;BME280;54981;50.206;15.978;2023-05-18T13:24:27;99665.56;;;13.85;88.70
68169;BME280;54981;50.206;15.978;2023-05-18T13:26:57;99650.91;;;13.76;80.86
68169;BME280;54981;50.206;15.978;2023-05-18T13:29:27;99652.94;;;13.87;87.09
68169;BME280;54981;50.206;15.978;2023-05-18T13:31:58;99649.84;;;13.63;81.68
68169;BME280;54981;50.206;15.978;2023-05-18T13:34:28;99650.22;;;13.57;85.59
68169;BME280;54981;50.206;15.978;2023-05-18T13:36:58;99654.16;;;13.66;92.08